Time;durP1;ratioP1;P1;durP2;ratioP2;P2;SDS_P1;SDS_P2;PMS_P1;PMS_P2;Temp;Humidity;BMP_temperature;BMP_pressure;BME280_temperature;BME280_humidity;BME280_pressure;Samples;Min_cycle;Max_cycle;Signal;HPM_P1;HPM_P2
2022/08/15 00:01:13;;;;;;;3.10;2.30;;;25.50;99.90;;;;;;5075957;28;20173;-86
2022/08/15 00:03:47;;;;;;;5.93;2.50;;;25.50;1.00;;;;;;5075643;28;20175;-91
2022/08/15 00:06:18;;;;;;;3.40;2.40;;;25.30;99.90;;;;;;5075538;28;20176;-86
2022/08/15 00:08:49;;;;;;;3.83;2.10;;;25.40;99.90;;;;;;5076018;28;20212;-85
2022/08/15 00:11:19;;;;;;;3.13;2.40;;;25.30;99.90;;;;;;5071187;28;20169;-90
2022/08/15 00:13:54;;;;;;;6.57;2.67;;;25.30;1.00;;;;;;5071434;28;20609;-92
2022/08/15 00:16:22;;;;;;;3.87;2.20;;;25.30;99.90;;;;;;5068925;28;20176;-93
2022/08/15 00:18:54;;;;;;;5.93;2.90;;;25.40;99.90;;;;;;5059008;28;20157;-92
2022/08/15 00:21:20;;;;;;;6.07;2.23;;;25.30;1.00;;;;;;5061650;28;20179;-92
2022/08/15 00:23:48;;;;;;;4.17;2.43;;;25.30;1.00;;;;;;5069223;28;20195;-93
2022/08/15 00:26:14;;;;;;;4.43;2.47;;;25.30;1.00;;;;;;5078679;28;20179;-90
2022/08/15 00:28:40;;;;;;;6.87;2.90;;;25.30;1.00;;;;;;5074938;28;20207;-85
2022/08/15 00:31:10;;;;;;;3.87;2.40;;;25.30;99.90;;;;;;5071777;28;20165;-96
2022/08/15 00:33:41;;;;;;;4.93;2.57;;;25.30;99.90;;;;;;5059084;28;20169;-93
2022/08/15 00:36:10;;;;;;;5.20;2.20;;;25.20;1.00;;;;;;5059472;28;20169;-95
2022/08/15 00:38:42;;;;;;;5.87;2.10;;;25.00;99.90;;;;;;5061801;28;20197;-92
2022/08/15 00:44:00;;;;;;;4.67;2.60;;;25.10;1.00;;;;;;5077074;28;20160;-86
2022/08/15 00:46:28;;;;;;;6.37;2.67;;;25.10;99.90;;;;;;5076567;28;20244;-89
2022/08/15 00:48:58;;;;;;;4.30;2.30;;;25.20;53.50;;;;;;5053579;28;20669;-93
2022/08/15 00:52:15;;;;;;;5.70;2.50;;;25.10;63.80;;;;;;5048716;28;20180;-93
2022/08/15 00:54:55;;;;;;;3.40;2.53;;;25.00;1.00;;;;;;5071165;28;20159;-90
2022/08/15 00:57:51;;;;;;;5.50;2.30;;;24.90;41.60;;;;;;5065577;28;20207;-92
2022/08/15 01:00:26;;;;;;;4.10;2.63;;;24.70;97.50;;;;;;5047108;28;20177;-89
2022/08/15 01:02:54;;;;;;;5.27;2.60;;;24.60;1.00;;;;;;5065413;28;20192;-92
2022/08/15 01:05:20;;;;;;;10.17;3.33;;;24.60;99.90;;;;;;5076870;28;20228;-92
2022/08/15 01:07:47;;;;;;;5.53;2.77;;;24.50;1.00;;;;;;5057631;28;20226;-87
2022/08/15 01:10:16;;;;;;;4.53;2.70;;;24.40;99.90;;;;;;5072789;28;20192;-87
2022/08/15 01:12:43;;;;;;;6.13;2.57;;;24.40;99.90;;;;;;5068744;28;20705;-94
2022/08/15 01:15:21;;;;;;;3.90;2.50;;;24.40;99.90;;;;;;5064274;28;20172;-93
2022/08/15 01:17:51;;;;;;;7.67;2.73;;;24.20;1.00;;;;;;5059073;28;20207;-95
2022/08/15 01:20:29;;;;;;;4.40;2.40;;;24.20;99.90;;;;;;5061256;28;20221;-93
2022/08/15 01:23:44;;;;;;;6.13;2.50;;;24.10;99.90;;;;;;5043357;28;20249;-93
2022/08/15 01:26:12;;;;;;;4.80;2.30;;;23.90;1.00;;;;;;5057434;28;20188;-94
2022/08/15 01:28:43;;;;;;;5.47;2.73;;;23.80;1.00;;;;;;5066494;28;20211;-96
2022/08/15 01:31:13;;;;;;;4.67;2.33;;;23.80;1.00;;;;;;5061054;28;20221;-95
2022/08/15 01:33:45;;;;;;;4.60;2.47;;;23.90;99.90;;;;;;5057703;28;20547;-90
2022/08/15 01:36:15;;;;;;;3.70;2.20;;;23.90;99.90;;;;;;5056453;28;20585;-88
2022/08/15 01:39:05;;;;;;;5.13;2.30;;;23.80;1.00;;;;;;5057413;28;20190;-94
2022/08/15 01:41:54;;;;;;;3.77;2.07;;;23.70;99.90;;;;;;5053006;28;20186;-93
2022/08/15 01:44:47;;;;;;;4.87;2.30;;;23.70;99.90;;;;;;5023925;28;20248;-93
2022/08/15 01:47:17;;;;;;;5.83;2.60;;;23.60;1.00;;;;;;5060970;28;20218;-94
2022/08/15 01:49:51;;;;;;;3.17;1.83;;;23.70;1.00;;;;;;5061230;28;20655;-94
2022/08/15 01:52:19;;;;;;;5.17;2.33;;;23.70;1.00;;;;;;5067217;28;20192;-92
2022/08/15 01:54:46;;;;;;;3.30;2.47;;;23.60;1.00;;;;;;5064109;28;20264;-84
2022/08/15 01:57:12;;;;;;;3.43;2.20;;;23.60;1.00;;;;;;5078021;28;20234;-89
2022/08/15 01:59:39;;;;;;;2.90;1.70;;;23.60;1.00;;;;;;5073666;28;20179;-86
2022/08/15 02:02:13;;;;;;;8.93;2.47;;;23.60;1.00;;;;;;5072227;28;20175;-88
2022/08/15 02:04:41;;;;;;;4.37;2.80;;;23.60;1.00;;;;;;5070932;28;20266;-90
2022/08/15 02:07:17;;;;;;;3.73;2.23;;;23.60;1.00;;;;;;5041603;28;20198;-88
2022/08/15 02:09:47;;;;;;;4.63;2.10;;;23.70;1.00;;;;;;5058632;28;20180;-93
2022/08/15 02:12:15;;;;;;;6.03;2.10;;;23.60;1.00;;;;;;5058295;28;20162;-94
2022/08/15 02:14:50;;;;;;;3.20;2.27;;;23.70;1.00;;;;;;5058175;28;20169;-89
2022/08/15 02:17:20;;;;;;;3.43;2.30;;;23.60;1.00;;;;;;5058338;28;20194;-93
2022/08/15 02:19:49;;;;;;;3.00;2.00;;;23.70;1.00;;;;;;5058700;28;20176;-92
2022/08/15 02:22:16;;;;;;;3.67;1.97;;;23.70;1.00;;;;;;5041467;28;20288;-91
2022/08/15 02:24:43;;;;;;;4.40;2.30;;;23.70;1.00;;;;;;5057491;28;20198;-93
2022/08/15 02:27:09;;;;;;;3.13;2.30;;;23.90;1.00;;;;;;5058996;28;20203;-93
2022/08/15 02:29:35;;;;;;;3.63;2.20;;;24.00;99.90;;;;;;5059536;28;20172;-93
2022/08/15 02:32:08;;;;;;;5.57;2.47;;;24.00;99.90;;;;;;5058154;28;20202;-93
2022/08/15 02:34:34;;;;;;;3.40;2.10;;;24.00;99.90;;;;;;5056991;28;20196;-93
2022/08/15 02:37:01;;;;;;;4.47;2.23;;;23.90;1.00;;;;;;5057310;28;20171;-92
2022/08/15 02:39:27;;;;;;;4.83;2.40;;;23.80;1.00;;;;;;5059807;28;20180;-91
2022/08/15 02:41:53;;;;;;;3.17;2.03;;;23.80;1.00;;;;;;5059245;28;20719;-96
2022/08/15 02:44:21;;;;;;;3.03;1.93;;;23.80;1.00;;;;;;5057170;28;20649;-94
2022/08/15 02:46:52;;;;;;;3.43;2.37;;;23.90;1.00;;;;;;5056911;28;20172;-94
2022/08/15 02:49:24;;;;;;;3.73;2.13;;;24.00;1.00;;;;;;5058816;28;20187;-94
2022/08/15 02:51:53;;;;;;;4.97;2.17;;;23.90;1.00;;;;;;5060984;28;20183;-96
2022/08/15 02:54:22;;;;;;;4.20;2.10;;;23.70;1.00;;;;;;5061653;28;20176;-96
2022/08/15 02:56:49;;;;;;;4.83;2.37;;;23.60;1.00;;;;;;5046714;28;20207;-95
2022/08/15 02:59:16;;;;;;;5.33;2.40;;;23.60;1.00;;;;;;5066880;28;20182;-94
2022/08/15 03:01:42;;;;;;;3.83;2.53;;;23.70;1.00;;;;;;5047773;28;20187;-96
2022/08/15 03:04:19;;;;;;;5.27;2.87;;;23.70;1.00;;;;;;5064146;28;20205;-90
2022/08/15 03:06:47;;;;;;;3.50;2.47;;;23.70;6.40;;;;;;5066114;28;20176;-95
2022/08/15 03:09:15;;;;;;;4.50;2.40;;;23.50;99.90;;;;;;5060757;28;20193;-90
2022/08/15 03:11:44;;;;;;;4.80;2.60;;;23.40;99.90;;;;;;5079210;28;20181;-93
2022/08/15 03:14:13;;;;;;;4.77;2.67;;;23.40;99.90;;;;;;5074049;28;20270;-91
2022/08/15 03:16:43;;;;;;;5.30;2.83;;;23.60;99.90;;;;;;5049805;28;20206;-95
2022/08/15 03:19:25;;;;;;;6.20;2.87;;;23.60;99.90;;;;;;5064700;28;20293;-96
2022/08/15 03:21:57;;;;;;;7.63;2.90;;;23.50;99.90;;;;;;5064377;28;20175;-96
2022/08/15 03:24:24;;;;;;;5.33;2.80;;;23.60;99.90;;;;;;5062147;28;20196;-95
2022/08/15 03:26:53;;;;;;;5.80;2.90;;;23.50;99.90;;;;;;5065333;28;20258;-96
2022/08/15 03:29:19;;;;;;;4.80;2.93;;;23.50;99.90;;;;;;5079941;28;20178;-93
2022/08/15 03:31:47;;;;;;;4.50;3.30;;;23.30;1.00;;;;;;5078997;28;20163;-91
2022/08/15 03:34:17;;;;;;;4.77;3.30;;;23.20;1.00;;;;;;5059699;28;20258;-92
2022/08/15 03:36:46;;;;;;;6.20;3.70;;;23.30;1.00;;;;;;5047621;28;20197;-95
2022/08/15 03:39:40;;;;;;;7.07;3.90;;;23.30;1.00;;;;;;5065420;28;20175;-96
2022/08/15 03:42:10;;;;;;;4.73;3.53;;;23.10;1.00;;;;;;5064002;28;20174;-95
2022/08/15 03:44:38;;;;;;;5.27;3.47;;;23.10;1.00;;;;;;5029794;28;20174;-96
2022/08/15 03:47:05;;;;;;;3.70;3.20;;;23.00;1.00;;;;;;5045348;28;20229;-95
2022/08/15 03:49:32;;;;;;;5.03;3.40;;;23.00;1.00;;;;;;5060818;28;20191;-93
2022/08/15 03:52:05;;;;;;;6.93;3.70;;;23.20;1.00;;;;;;5045284;28;20584;-95
2022/08/15 03:54:31;;;;;;;5.90;3.90;;;23.20;1.00;;;;;;5061074;28;20182;-96
2022/08/15 03:57:00;;;;;;;5.87;3.53;;;23.30;1.00;;;;;;5059935;28;20630;-96
2022/08/15 03:59:25;;;;;;;6.83;3.97;;;23.30;1.00;;;;;;5042699;28;20198;-94
2022/08/15 04:01:51;;;;;;;6.70;4.17;;;23.10;1.00;;;;;;5059758;28;20213;-96
2022/08/15 04:04:17;;;;;;;6.70;3.47;;;23.00;1.00;;;;;;5064621;28;20178;-93
2022/08/15 04:06:44;;;;;;;5.50;3.70;;;22.90;1.00;;;;;;5067753;28;20219;-95
2022/08/15 04:09:10;;;;;;;6.97;4.07;;;22.90;1.00;;;;;;5046064;28;20182;-95
2022/08/15 04:11:37;;;;;;;6.17;3.87;;;22.80;1.00;;;;;;5060830;28;20188;-96
2022/08/15 04:14:07;;;;;;;5.03;3.60;;;22.70;1.00;;;;;;5059424;28;20276;-96
2022/08/15 04:16:33;;;;;;;6.30;3.97;;;22.70;1.00;;;;;;5059955;28;20173;-95
2022/08/15 04:19:00;;;;;;;5.67;3.80;;;22.60;1.00;;;;;;5060757;28;20163;-96
2022/08/15 04:21:32;;;;;;;4.90;3.93;;;22.70;1.00;;;;;;5061251;28;20641;-96
2022/08/15 04:24:01;;;;;;;6.47;4.07;;;22.80;1.00;;;;;;5058833;28;20184;-96
2022/08/15 04:26:28;;;;;;;7.77;4.30;;;22.80;1.00;;;;;;5059857;28;20256;-96
2022/08/15 04:28:53;;;;;;;7.87;4.30;;;22.90;1.00;;;;;;5063406;28;20208;-96
2022/08/15 04:31:21;;;;;;;5.30;4.33;;;22.80;1.00;;;;;;5075511;28;20179;-93
2022/08/15 04:33:47;;;;;;;6.00;4.30;;;23.00;1.00;;;;;;5079216;28;20162;-91
2022/08/15 04:36:15;;;;;;;7.80;4.37;;;23.00;1.00;;;;;;5078160;28;20245;-89
2022/08/15 04:38:43;;;;;;;9.30;4.67;;;23.00;1.00;;;;;;5078902;28;20190;-91
2022/08/15 04:41:12;;;;;;;8.07;4.60;;;23.00;1.00;;;;;;5078137;28;20174;-95
2022/08/15 04:43:44;;;;;;;7.20;4.20;;;23.00;1.00;;;;;;5067966;28;20173;-95
2022/08/15 04:46:18;;;;;;;6.97;4.47;;;23.10;1.00;;;;;;5068239;28;20185;-96
2022/08/15 04:48:44;;;;;;;7.77;4.57;;;23.00;1.00;;;;;;5066218;28;20206;-94
2022/08/15 04:51:13;;;;;;;6.80;4.43;;;22.90;1.00;;;;;;5060026;28;20182;-94
2022/08/15 04:53:44;;;;;;;5.83;3.77;;;22.90;1.00;;;;;;5056191;28;20174;-95
2022/08/15 04:56:09;;;;;;;5.97;4.50;;;22.80;1.00;;;;;;5062246;28;20177;-88
2022/08/15 04:58:36;;;;;;;6.43;4.30;;;22.90;1.00;;;;;;5077207;28;20231;-93
2022/08/15 05:01:09;;;;;;;6.17;4.57;;;22.90;1.00;;;;;;5074877;28;20229;-95
2022/08/15 05:03:35;;;;;;;5.97;4.40;;;22.80;1.00;;;;;;5077819;28;20174;-95
2022/08/15 05:06:05;;;;;;;6.37;4.33;;;22.90;1.00;;;;;;5060002;28;20178;-91
2022/08/15 05:08:35;;;;;;;8.03;4.87;;;23.10;1.00;;;;;;5053069;28;20674;-94
2022/08/15 05:11:04;;;;;;;6.33;4.27;;;23.20;1.00;;;;;;5054754;28;20181;-94
2022/08/15 05:13:32;;;;;;;7.73;4.40;;;23.10;1.00;;;;;;5053380;28;20190;-95
2022/08/15 05:15:58;;;;;;;5.93;4.23;;;23.00;1.00;;;;;;5060857;28;20620;-92
2022/08/15 05:18:26;;;;;;;5.00;3.90;;;22.90;1.00;;;;;;5055306;28;20183;-91
2022/08/15 05:20:52;;;;;;;5.67;4.07;;;22.90;1.00;;;;;;5054143;28;20179;-94
2022/08/15 05:23:20;;;;;;;9.37;4.20;;;22.70;1.00;;;;;;5054259;28;20200;-93
2022/08/15 05:25:49;;;;;;;9.23;4.43;;;22.70;1.00;;;;;;5053031;28;20170;-94
2022/08/15 05:28:15;;;;;;;7.80;4.83;;;22.70;1.00;;;;;;5055024;28;20206;-95
2022/08/15 05:30:42;;;;;;;6.57;4.27;;;22.80;1.00;;;;;;5037837;28;20625;-96
2022/08/15 05:33:14;;;;;;;5.87;4.40;;;22.70;1.00;;;;;;5055045;28;20183;-95
2022/08/15 05:35:44;;;;;;;6.23;4.47;;;22.70;1.00;;;;;;5054919;28;20201;-96
2022/08/15 05:38:18;;;;;;;6.50;4.50;;;22.70;1.00;;;;;;5057780;28;20176;-96
2022/08/15 05:40:53;;;;;;;9.07;4.20;;;22.80;1.00;;;;;;5039347;28;20174;-93
2022/08/15 05:43:46;;;;;;;6.60;4.57;;;22.90;1.00;;;;;;5057619;28;20166;-91
2022/08/15 05:46:26;;;;;;;7.90;4.70;;;22.80;1.00;;;;;;5054490;28;20186;-92
2022/08/15 05:49:17;;;;;;;7.53;4.67;;;22.90;1.00;;;;;;5055109;28;20294;-95
2022/08/15 05:52:07;;;;;;;8.83;5.00;;;23.00;1.00;;;;;;5054808;28;20196;-93
2022/08/15 05:55:02;;;;;;;7.50;4.23;;;22.90;1.00;;;;;;5074169;28;20808;-89
2022/08/15 05:57:34;;;;;;;8.13;5.07;;;22.80;1.00;;;;;;5074145;28;20198;-91
2022/08/15 06:00:13;;;;;;;6.17;4.03;;;22.80;1.00;;;;;;5074383;28;20201;-92
2022/08/15 06:02:45;;;;;;;6.27;4.50;;;23.00;1.00;;;;;;5042955;28;20281;-92
2022/08/15 06:05:31;;;;;;;7.17;4.90;;;22.90;1.00;;;;;;5057940;28;20179;-93
2022/08/15 06:08:00;;;;;;;6.40;4.47;;;22.90;1.00;;;;;;5054469;28;20268;-95
2022/08/15 06:10:36;;;;;;;7.17;5.10;;;22.80;1.00;;;;;;5058478;28;20224;-95
2022/08/15 06:13:23;;;;;;;6.73;4.73;;;22.80;1.00;;;;;;5073398;28;20171;-94
2022/08/15 06:16:03;;;;;;;6.40;4.83;;;22.80;1.00;;;;;;5077970;28;20216;-91
2022/08/15 06:18:35;;;;;;;5.83;4.60;;;22.80;1.00;;;;;;5076310;28;20223;-89
2022/08/15 06:21:09;;;;;;;8.73;4.67;;;22.90;1.00;;;;;;5045772;28;20187;-95
2022/08/15 06:24:01;;;;;;;7.83;4.93;;;23.10;1.00;;;;;;5060491;28;20213;-96
2022/08/15 06:26:59;;;;;;;7.77;4.37;;;23.10;1.00;;;;;;5059443;28;20194;-96
2022/08/15 06:29:28;;;;;;;5.63;5.03;;;23.10;1.00;;;;;;5062538;28;20197;-95
2022/08/15 06:32:02;;;;;;;7.57;4.63;;;23.10;1.00;;;;;;5067608;28;20168;-96
2022/08/15 06:34:46;;;;;;;5.33;4.10;;;23.10;1.00;;;;;;5069470;28;20165;-95
2022/08/15 06:38:03;;;;;;;7.63;4.80;;;23.20;1.00;;;;;;5071911;28;20214;-94
2022/08/15 06:40:58;;;;;;;5.73;4.27;;;23.20;1.00;;;;;;5048533;28;20178;-96
2022/08/15 06:43:24;;;;;;;7.70;4.30;;;23.10;1.00;;;;;;5059224;28;20180;-96
2022/08/15 06:45:55;;;;;;;7.00;4.27;;;23.00;1.00;;;;;;5063947;28;20191;-96
2022/08/15 06:48:25;;;;;;;7.13;4.70;;;23.20;1.00;;;;;;5060191;28;20207;-96
2022/08/15 06:50:53;;;;;;;6.40;4.63;;;23.30;1.00;;;;;;5042429;28;20228;-96
2022/08/15 06:53:53;;;;;;;8.63;4.97;;;23.40;1.00;;;;;;5063375;28;20183;-96
2022/08/15 06:56:46;;;;;;;8.60;5.70;;;23.30;1.00;;;;;;5063092;28;20174;-94
2022/08/15 06:59:54;;;;;;;6.63;4.70;;;23.10;1.00;;;;;;5061572;28;20182;-94
2022/08/15 07:02:29;;;;;;;6.47;4.50;;;23.10;1.00;;;;;;4986101;28;20169;-94
2022/08/15 07:05:14;;;;;;;7.23;4.60;;;23.10;1.00;;;;;;5058079;28;20268;-95
2022/08/15 07:07:54;;;;;;;7.17;4.93;;;23.10;1.00;;;;;;5064642;28;20275;-96
2022/08/15 07:10:41;;;;;;;5.80;4.20;;;23.30;1.00;;;;;;5065080;28;20171;-96
2022/08/15 07:13:31;;;;;;;7.17;5.07;;;23.40;1.00;;;;;;5068679;28;20158;-95
2022/08/15 07:16:23;;;;;;;7.27;5.00;;;23.50;1.00;;;;;;5076884;28;20179;-91
2022/08/15 07:18:53;;;;;;;6.93;4.70;;;23.50;1.00;;;;;;5078419;28;20186;-93
2022/08/15 07:21:22;;;;;;;7.73;5.20;;;23.50;1.00;;;;;;5078389;28;20215;-93
2022/08/15 07:24:11;;;;;;;5.90;4.70;;;23.50;1.00;;;;;;5078014;28;20192;-92
2022/08/15 07:27:02;;;;;;;7.20;4.70;;;23.50;1.00;;;;;;5078857;28;20176;-90
2022/08/15 07:29:39;;;;;;;7.23;5.57;;;23.50;1.00;;;;;;5078304;28;20226;-96
2022/08/15 07:32:29;;;;;;;8.23;5.10;;;23.50;1.00;;;;;;5078376;28;20171;-90
2022/08/15 07:34:58;;;;;;;6.30;4.80;;;23.60;1.00;;;;;;5078859;28;20168;-90
2022/08/15 07:37:37;;;;;;;8.30;4.93;;;23.80;1.00;;;;;;5073466;28;20676;-96
2022/08/15 07:40:28;;;;;;;8.10;5.17;;;23.80;1.00;;;;;;5076077;28;20179;-96
2022/08/15 07:42:58;;;;;;;8.67;5.30;;;23.70;1.00;;;;;;5065458;28;20183;-87
2022/08/15 07:45:33;;;;;;;6.70;5.40;;;23.70;1.00;;;;;;5069531;28;20243;-90
2022/08/15 07:48:26;;;;;;;7.07;5.10;;;23.70;1.00;;;;;;5069471;28;20192;-89
2022/08/15 07:51:19;;;;;;;7.57;5.23;;;23.90;1.00;;;;;;5062650;28;20244;-92
2022/08/15 07:53:52;;;;;;;6.03;5.10;;;24.00;1.00;;;;;;5080112;28;20165;-91
2022/08/15 07:56:20;;;;;;;8.93;5.00;;;24.00;1.00;;;;;;5075749;28;20173;-89
2022/08/15 07:58:55;;;;;;;7.70;5.23;;;23.80;1.00;;;;;;5073177;28;20248;-89
2022/08/15 08:01:31;;;;;;;8.73;5.23;;;23.90;1.00;;;;;;5072723;28;20221;-88
2022/08/15 08:04:05;;;;;;;9.10;5.00;;;23.90;1.00;;;;;;5066065;28;20207;-92
2022/08/15 08:07:18;;;;;;;6.43;4.83;;;24.00;1.00;;;;;;5064680;28;20191;-94
2022/08/15 08:09:55;;;;;;;7.33;5.63;;;24.20;1.00;;;;;;5008417;28;20210;-90
2022/08/15 08:13:12;;;;;;;10.77;4.57;;;24.40;1.00;;;;;;5066438;28;20253;-92
2022/08/15 08:16:04;;;;;;;6.70;4.83;;;24.50;1.00;;;;;;5063825;28;20230;-95
2022/08/15 08:18:50;;;;;;;8.43;5.53;;;24.60;1.00;;;;;;5064253;28;20252;-96
2022/08/15 08:21:27;;;;;;;8.93;5.43;;;24.40;1.00;;;;;;5062849;28;20208;-94
2022/08/15 08:24:00;;;;;;;6.70;5.63;;;24.30;1.00;;;;;;5064784;28;20185;-94
2022/08/15 08:26:41;;;;;;;10.37;4.93;;;24.30;1.00;;;;;;5061260;28;20185;-95
2022/08/15 08:29:57;;;;;;;10.70;5.00;;;24.40;1.00;;;;;;5063523;28;20273;-94
2022/08/15 08:32:34;;;;;;;11.20;5.10;;;24.50;1.00;;;;;;5050570;28;20201;-94
2022/08/15 08:35:21;;;;;;;6.93;4.70;;;24.60;1.00;;;;;;5074406;28;20156;-92
2022/08/15 08:38:22;;;;;;;7.30;4.77;;;24.70;1.00;;;;;;5076639;28;20169;-93
2022/08/15 08:41:25;;;;;;;7.73;4.57;;;24.80;1.00;;;;;;5073461;28;20202;-95
2022/08/15 08:44:19;;;;;;;7.67;4.63;;;25.10;99.90;;;;;;5061711;28;20157;-96
2022/08/15 08:47:00;;;;;;;6.40;3.80;;;25.20;99.90;;;;;;5060202;28;20172;-95
2022/08/15 08:49:38;;;;;;;5.83;4.33;;;25.30;99.90;;;;;;5065023;28;20200;-94
2022/08/15 08:52:19;;;;;;;5.20;3.83;;;25.40;99.90;;;;;;5066998;28;20164;-96
2022/08/15 08:55:02;;;;;;;7.50;4.40;;;25.50;99.90;;;;;;5078150;28;20153;-92
2022/08/15 08:58:02;;;;;;;8.73;4.47;;;25.50;99.90;;;;;;5076147;28;20685;-89
2022/08/15 09:00:43;;;;;;;7.90;4.20;;;25.60;99.90;;;;;;5053044;28;20161;-90
2022/08/15 09:03:39;;;;;;;5.97;4.23;;;25.70;99.90;;;;;;5078000;28;20184;-89
2022/08/15 09:06:15;;;;;;;6.47;4.40;;;25.70;99.90;;;;;;5078427;28;20164;-93
2022/08/15 09:08:51;;;;;;;5.03;4.53;;;25.70;99.90;;;;;;5078340;28;20221;-90
2022/08/15 09:11:57;;;;;;;6.33;4.17;;;25.80;99.90;;;;;;5062071;28;20181;-89
2022/08/15 09:14:45;;;;;;;5.90;3.63;;;26.00;50.10;;;;;;5051309;28;20185;-92
2022/08/15 09:20:46;;;;;;;6.53;4.00;;;26.30;1.00;;;;;;5063200;28;20191;-94
2022/08/15 09:26:46;;;;;;;6.67;4.03;;;26.60;99.90;;;;;;5070616;28;20212;-96
2022/08/15 09:29:31;;;;;;;6.67;4.40;;;26.90;99.90;;;;;;5042705;28;20219;-93
2022/08/15 09:32:32;;;;;;;5.50;4.00;;;27.00;1.00;;;;;;5068795;28;20230;-94
2022/08/15 09:35:35;;;;;;;7.77;4.30;;;26.90;1.00;;;;;;5068792;28;20174;-95
2022/08/15 09:38:26;;;;;;;8.30;4.57;;;26.70;1.00;;;;;;5067729;28;20260;-91
2022/08/15 09:41:46;;;;;;;6.23;3.97;;;26.60;99.90;;;;;;5069472;28;20233;-94
2022/08/15 09:44:31;;;;;;;5.53;3.87;;;26.60;99.90;;;;;;5008169;28;20672;-95
2022/08/15 09:47:17;;;;;;;8.43;3.93;;;26.60;1.00;;;;;;5065211;28;20181;-96
2022/08/15 09:49:57;;;;;;;7.60;4.07;;;26.50;99.90;;;;;;5064154;28;20176;-96
2022/08/15 09:52:38;;;;;;;5.43;4.33;;;26.60;99.90;;;;;;5064061;28;20537;-95
2022/08/15 09:55:44;;;;;;;6.00;3.87;;;26.90;1.00;;;;;;5065213;28;20646;-96
2022/08/15 09:58:31;;;;;;;7.43;4.17;;;27.00;1.00;;;;;;5023070;28;20228;-96
2022/08/15 10:01:12;;;;;;;5.47;3.90;;;26.90;99.90;;;;;;5068696;28;20201;-96
2022/08/15 10:03:50;;;;;;;6.77;4.17;;;27.00;99.90;;;;;;5066120;28;20178;-96
2022/08/15 10:06:28;;;;;;;7.25;3.65;;;27.40;1.00;;;;;;5071518;28;20228;-95
2022/08/15 10:08:54;;;;;;;7.27;4.10;;;27.40;99.90;;;;;;5037809;28;20210;-96
2022/08/15 10:11:52;;;;;;;4.90;3.90;;;27.40;1.00;;;;;;5067729;28;20203;-96
2022/08/15 10:14:21;;;;;;;6.83;3.77;;;27.40;59.60;;;;;;5066285;28;20201;-95
2022/08/15 10:17:22;;;;;;;5.90;4.03;;;27.30;99.90;;;;;;5073075;28;20184;-93
2022/08/15 10:20:04;;;;;;;6.35;3.80;;;27.40;1.00;;;;;;5073709;28;20236;-92
2022/08/15 10:22:32;;;;;;;8.57;3.93;;;27.50;1.00;;;;;;5075736;28;20702;-95
2022/08/15 10:25:36;;;;;;;6.18;3.70;;;27.50;1.00;;;;;;5075425;28;20161;-96
2022/08/15 10:28:16;;;;;;;5.60;3.50;;;27.60;1.00;;;;;;5074197;28;20242;-96
2022/08/15 10:30:51;;;;;;;6.35;3.97;;;27.60;1.00;;;;;;5074522;28;20175;-96
2022/08/15 10:33:38;;;;;;;6.95;4.00;;;27.40;1.00;;;;;;5073063;28;20206;-96
2022/08/15 10:36:34;;;;;;;5.57;3.92;;;27.30;99.90;;;;;;5077979;28;20180;-94
2022/08/15 10:39:40;;;;;;;6.97;4.50;;;27.40;1.00;;;;;;5075830;28;20537;-96
2022/08/15 10:42:44;;;;;;;5.10;3.83;;;27.30;1.00;;;;;;5074387;28;20215;-92
2022/08/15 10:45:53;;;;;;;5.77;4.13;;;27.30;99.90;;;;;;5073515;28;20175;-94
2022/08/15 10:49:09;;;;;;;8.38;4.57;;;27.50;99.90;;;;;;5066041;28;20284;-90
2022/08/15 10:52:13;;;;;;;7.40;4.80;;;27.40;99.90;;;;;;5069992;28;20164;-94
2022/08/15 10:54:55;;;;;;;7.87;4.70;;;27.10;1.00;;;;;;5065164;28;20167;-96
2022/08/15 10:57:44;;;;;;;6.77;5.17;;;26.70;99.90;;;;;;5066458;28;20261;-93
2022/08/15 11:00:28;;;;;;;6.63;5.23;;;26.60;99.90;;;;;;5064323;28;20633;-95
2022/08/15 11:02:56;;;;;;;9.77;5.70;;;26.40;99.90;;;;;;5049739;28;20270;-95
2022/08/15 11:05:26;;;;;;;7.23;5.07;;;26.30;1.00;;;;;;5067416;28;20210;-94
2022/08/15 11:07:55;;;;;;;9.87;5.47;;;26.40;99.90;;;;;;5064796;28;20197;-94
2022/08/15 11:13:37;;;;;;;5.80;5.20;;;27.00;1.00;;;;;;5041554;28;20186;-95
2022/08/15 11:16:24;;;;;;;5.73;4.83;;;27.00;1.00;;;;;;5067440;28;20202;-95
2022/08/15 11:18:58;;;;;;;12.13;5.17;;;27.00;99.90;;;;;;5074785;28;20177;-92
2022/08/15 11:21:39;;;;;;;7.13;4.33;;;27.00;1.00;;;;;;5074038;28;20173;-94
2022/08/15 11:24:10;;;;;;;7.67;4.57;;;27.00;99.90;;;;;;5053148;28;20193;-93
2022/08/15 11:27:11;;;;;;;8.17;4.93;;;27.00;99.90;;;;;;5066195;28;20197;-93
2022/08/15 11:29:45;;;;;;;8.65;4.85;;;27.10;1.00;;;;;;5061506;28;20203;-92
2022/08/15 11:32:37;;;;;;;7.30;5.07;;;27.10;1.00;;;;;;5069676;28;20165;-89
2022/08/15 11:35:22;;;;;;;8.93;5.07;;;27.10;1.00;;;;;;5075079;28;20191;-94
2022/08/15 11:38:20;;;;;;;8.30;4.20;;;27.30;99.90;;;;;;5060218;28;20172;-90
2022/08/15 11:40:52;;;;;;;8.15;4.63;;;27.40;99.90;;;;;;5076807;28;20158;-89
2022/08/15 11:43:22;;;;;;;7.43;4.53;;;27.70;1.00;;;;;;5070846;28;20188;-92
2022/08/15 11:49:34;;;;;;;8.75;5.20;;;27.50;99.90;;;;;;5070332;28;20220;-92
2022/08/15 11:52:08;;;;;;;9.80;5.25;;;27.40;1.00;;;;;;5066373;28;20170;-93
2022/08/15 11:54:39;;;;;;;6.85;5.20;;;27.40;1.70;;;;;;5045829;28;20169;-95
2022/08/15 11:57:21;;;;;;;20.45;6.88;;;27.40;99.90;;;;;;5063854;28;20551;-96
2022/08/15 12:00:26;;;;;;;9.65;6.30;;;27.40;99.90;;;;;;5063387;28;20180;-91
2022/08/15 12:02:54;;;;;;;8.13;6.00;;;27.50;99.90;;;;;;5058797;28;20177;-95
2022/08/15 12:05:33;;;;;;;8.70;6.30;;;27.50;99.90;;;;;;5067760;28;20164;-92
2022/08/15 12:08:07;;;;;;;12.18;6.55;;;27.50;99.90;;;;;;5052946;28;20276;-90
2022/08/15 12:10:40;;;;;;;10.55;6.20;;;27.70;99.90;;;;;;5053569;28;20172;-95
2022/08/15 12:13:14;;;;;;;9.20;5.80;;;27.80;1.00;;;;;;5052000;28;20180;-91
2022/08/15 12:15:48;;;;;;;7.32;5.85;;;27.90;99.90;;;;;;5070001;28;20160;-91
2022/08/15 12:18:27;;;;;;;6.38;5.78;;;28.00;99.90;;;;;;5072481;28;20181;-96
2022/08/15 12:21:12;;;;;;;10.23;6.40;;;28.20;99.90;;;;;;5062820;28;20175;-90
2022/08/15 12:23:54;;;;;;;9.18;6.18;;;28.30;1.00;;;;;;5060504;28;20243;-93
2022/08/15 12:26:29;;;;;;;7.60;5.57;;;28.50;99.90;;;;;;5067719;28;20204;-95
2022/08/15 12:28:57;;;;;;;8.90;5.57;;;28.70;1.00;;;;;;5066998;28;20240;-91
2022/08/15 12:31:25;;;;;;;10.23;5.53;;;28.70;1.00;;;;;;5070851;28;20181;-95
2022/08/15 12:34:36;;;;;;;9.05;5.57;;;28.60;99.90;;;;;;5073376;28;20180;-95
2022/08/15 12:37:12;;;;;;;7.68;5.25;;;28.60;99.90;;;;;;5070276;28;20169;-95
2022/08/15 12:39:56;;;;;;;8.57;5.05;;;28.70;99.90;;;;;;5053646;28;20185;-94
2022/08/15 12:42:39;;;;;;;6.63;4.63;;;28.80;63.00;;;;;;5076765;28;20164;-89
2022/08/15 12:45:14;;;;;;;6.88;4.93;;;28.90;1.00;;;;;;5060948;28;20185;-96
2022/08/15 12:51:04;;;;;;;6.80;4.60;;;29.60;99.90;;;;;;5076697;28;20172;-93
2022/08/15 12:53:58;;;;;;;9.68;4.75;;;29.80;26.10;;;;;;5070436;28;20176;-96
2022/08/15 12:56:25;;;;;;;7.13;5.05;;;29.40;99.90;;;;;;5070467;28;20171;-94
2022/08/15 12:59:24;;;;;;;9.43;5.50;;;29.20;1.00;;;;;;5067796;28;20192;-93
2022/08/15 13:02:05;;;;;;;6.78;4.75;;;29.20;1.00;;;;;;5068749;28;20644;-94
2022/08/15 13:04:38;;;;;;;6.07;4.60;;;29.30;99.90;;;;;;5065212;28;20188;-92
2022/08/15 13:07:17;;;;;;;7.40;4.97;;;29.40;99.90;;;;;;5048746;28;20257;-89
2022/08/15 13:09:58;;;;;;;11.30;5.18;;;29.60;99.90;;;;;;5066434;28;20237;-87
2022/08/15 13:12:29;;;;;;;7.03;5.18;;;29.60;99.90;;;;;;5049084;28;20237;-93
2022/08/15 13:15:05;;;;;;;8.32;5.45;;;29.50;99.90;;;;;;5047863;28;20244;-90
2022/08/15 13:17:35;;;;;;;6.45;4.72;;;29.60;99.90;;;;;;5067334;28;20196;-88
2022/08/15 13:25:39;;;;;;;6.25;4.60;;;30.30;1.00;;;;;;5069218;28;20213;-94
2022/08/15 13:28:05;;;;;;;6.75;4.30;;;30.30;99.90;;;;;;5071100;28;20212;-95
2022/08/15 13:30:51;;;;;;;7.25;5.10;;;30.20;99.90;;;;;;5072360;28;20226;-90
2022/08/15 13:33:31;;;;;;;7.20;4.55;;;30.10;99.90;;;;;;5071387;28;20172;-95
2022/08/15 13:36:10;;;;;;;8.07;4.78;;;30.30;99.90;;;;;;5073860;28;20188;-90
2022/08/15 13:38:46;;;;;;;6.40;4.50;;;30.50;99.90;;;;;;5064217;28;20173;-89
2022/08/15 13:41:19;;;;;;;8.32;4.40;;;30.80;99.90;;;;;;5079782;28;20196;-91
2022/08/15 13:44:06;;;;;;;6.07;4.13;;;31.10;99.90;;;;;;5081725;28;20256;-91
2022/08/15 13:46:34;;;;;;;8.27;4.47;;;31.30;99.90;;;;;;5077640;28;20164;-89
2022/08/15 13:52:23;;;;;;;6.53;4.57;;;31.70;1.00;;;;;;5070810;28;20164;-89
2022/08/15 13:55:23;;;;;;;6.60;4.50;;;31.60;1.00;;;;;;5068871;28;20225;-88
2022/08/15 13:57:53;;;;;;;5.28;4.07;;;31.30;1.00;;;;;;5081752;28;20203;-90
2022/08/15 14:00:33;;;;;;;8.45;3.90;;;30.80;1.00;;;;;;5081223;28;20197;-89
2022/08/15 14:03:07;;;;;;;8.73;3.90;;;30.60;1.00;;;;;;5080987;28;20192;-89
2022/08/15 14:06:20;;;;;;;5.45;4.05;;;30.80;1.00;;;;;;5080380;28;20161;-90
2022/08/15 14:09:19;;;;;;;7.55;3.60;;;30.80;1.00;;;;;;5081296;28;20248;-91
2022/08/15 14:15:14;;;;;;;7.32;3.85;;;30.90;1.00;;;;;;5074362;28;20220;-91
2022/08/15 14:18:02;;;;;;;7.07;3.60;;;31.30;1.00;;;;;;5062171;28;20191;-89
2022/08/15 14:20:37;;;;;;;7.75;3.92;;;31.10;1.00;;;;;;5079110;28;20180;-88